Time;durP1;ratioP1;P1;durP2;ratioP2;P2;SDS_P1;SDS_P2;PMS_P1;PMS_P2;Temp;Humidity;BMP_temperature;BMP_pressure;BME280_temperature;BME280_humidity;BME280_pressure;Samples;Min_cycle;Max_cycle;Signal;HPM_P1;HPM_P2
2024/03/26 00:02:23;;;;;;;12.82;4.93;;;;;;;15.50;55.71;96652.13;5090489;28;20030;-49
2024/03/26 00:04:49;;;;;;;12.85;5.40;;;;;;;15.44;56.42;96654.03;5091996;28;20020;-49
2024/03/26 00:07:15;;;;;;;17.00;7.85;;;;;;;15.57;56.56;96655.19;5091950;28;20031;-49
2024/03/26 00:09:41;;;;;;;11.48;6.75;;;;;;;15.79;56.46;96649.41;5090699;28;20542;-49
2024/03/26 00:12:06;;;;;;;14.38;4.35;;;;;;;15.74;55.19;96650.28;5091945;28;20028;-48
2024/03/26 00:14:32;;;;;;;13.95;4.97;;;;;;;15.46;55.98;96657.19;5090880;28;20031;-48
2024/03/26 00:16:57;;;;;;;10.75;5.50;;;;;;;15.22;56.48;96657.19;5090547;28;20120;-48
2024/03/26 00:19:23;;;;;;;9.13;4.00;;;;;;;15.05;57.27;96659.44;5091897;28;20028;-49
2024/03/26 00:21:49;;;;;;;11.02;4.45;;;;;;;14.85;57.61;96647.22;5090879;28;20020;-49
2024/03/26 00:24:15;;;;;;;9.63;4.55;;;;;;;14.64;58.30;96650.03;5091866;28;20035;-49
2024/03/26 00:26:40;;;;;;;12.48;4.47;;;;;;;14.53;59.31;96651.94;5091820;28;20513;-48
2024/03/26 00:29:06;;;;;;;12.90;4.20;;;;;;;14.58;59.67;96646.63;5091770;28;20107;-49
2024/03/26 00:31:33;;;;;;;14.90;9.25;;;;;;;14.50;59.30;96646.44;5091778;28;20039;-49
2024/03/26 00:34:03;;;;;;;15.27;7.65;;;;;;;14.41;59.97;96635.69;5090192;28;20048;-49
2024/03/26 00:36:31;;;;;;;8.93;3.55;;;;;;;14.41;59.73;96633.03;5091706;28;20024;-49
2024/03/26 00:38:56;;;;;;;9.10;4.03;;;;;;;14.36;60.16;96630.41;5091730;28;20028;-48
2024/03/26 00:41:22;;;;;;;12.45;5.03;;;;;;;14.35;59.93;96620.94;5091969;28;20038;-48
2024/03/26 00:43:48;;;;;;;12.82;4.93;;;;;;;14.28;59.89;96617.81;5090679;28;20466;-49
2024/03/26 00:46:14;;;;;;;15.82;6.38;;;;;;;14.18;60.32;96624.75;5073736;28;20504;-48
2024/03/26 00:48:40;;;;;;;21.10;10.85;;;;;;;14.35;61.37;96623.59;5090362;28;20076;-49
2024/03/26 00:51:06;;;;;;;10.18;4.50;;;;;;;14.61;59.95;96613.66;5091570;28;20077;-49
2024/03/26 00:53:32;;;;;;;11.60;4.50;;;;;;;14.70;59.42;96614.59;5090223;28;20028;-49
2024/03/26 00:55:57;;;;;;;14.90;10.40;;;;;;;14.88;60.02;96612.34;5091527;28;20020;-48
2024/03/26 00:58:23;;;;;;;13.68;4.50;;;;;;;14.96;58.56;96607.22;5091515;28;20520;-48
2024/03/26 01:00:49;;;;;;;10.20;4.45;;;;;;;15.02;60.06;96613.25;5091511;28;20028;-48
2024/03/26 01:03:15;;;;;;;9.75;3.28;;;;;;;15.06;59.91;96616.13;5091477;28;20020;-49
2024/03/26 01:05:50;;;;;;;18.88;10.88;;;;;;;15.03;59.91;96619.31;5091491;28;20032;-48
2024/03/26 01:08:16;;;;;;;8.82;3.10;;;;;;;15.02;59.07;96615.13;5091523;28;20039;-49
2024/03/26 01:10:43;;;;;;;13.48;4.88;;;;;;;14.96;58.72;96617.00;5091424;28;20042;-49
2024/03/26 01:13:08;;;;;;;14.15;3.85;;;;;;;14.91;59.26;96611.78;5074592;28;20113;-49
2024/03/26 01:15:34;;;;;;;21.10;10.48;;;;;;;15.03;59.62;96603.47;5095555;28;20481;-49
2024/03/26 01:18:00;;;;;;;21.10;14.90;;;;;;;14.99;58.69;96603.25;5095158;28;20028;-48
2024/03/26 01:20:25;;;;;;;38.05;24.23;;;;;;;14.92;59.50;96600.94;5095109;28;20103;-49
2024/03/26 01:22:51;;;;;;;16.05;10.80;;;;;;;14.89;59.05;96592.78;5095026;28;20081;-49
2024/03/26 01:25:17;;;;;;;12.80;6.10;;;;;;;14.82;59.26;96598.38;5095369;28;20389;-49
2024/03/26 01:27:42;;;;;;;14.45;6.07;;;;;;;14.86;59.70;96588.06;5093760;28;20065;-49
2024/03/26 01:30:09;;;;;;;10.73;4.63;;;;;;;14.82;59.11;96579.91;5094906;28;20035;-49
2024/03/26 01:32:35;;;;;;;11.73;4.15;;;;;;;14.85;59.45;96573.28;5094852;28;20040;-49
2024/03/26 01:35:01;;;;;;;12.38;4.57;;;;;;;14.86;59.48;96574.88;5094761;28;20040;-48
2024/03/26 01:37:27;;;;;;;12.13;7.60;;;;;;;15.01;59.89;96576.53;5094817;28;20028;-49
2024/03/26 01:39:53;;;;;;;9.68;4.00;;;;;;;15.35;58.77;96574.59;5094789;28;20099;-49
2024/03/26 01:42:19;;;;;;;11.65;4.00;;;;;;;15.63;57.61;96566.03;5094689;28;20107;-49
2024/03/26 01:44:45;;;;;;;15.82;7.20;;;;;;;15.85;56.90;96557.56;5094738;28;20028;-49
2024/03/26 01:47:10;;;;;;;11.45;4.35;;;;;;;15.91;55.55;96561.72;5093272;28;20044;-49
2024/03/26 01:49:36;;;;;;;18.88;7.13;;;;;;;15.83;55.65;96554.41;5094629;28;20069;-49
2024/03/26 01:52:02;;;;;;;15.00;4.72;;;;;;;15.87;55.43;96558.84;5076387;28;20043;-49
2024/03/26 01:54:28;;;;;;;8.52;3.05;;;;;;;15.76;55.11;96546.84;5094401;28;20024;-49
2024/03/26 01:56:56;;;;;;;10.35;3.28;;;;;;;15.45;55.60;96546.44;5094424;28;20028;-49
2024/03/26 01:59:24;;;;;;;14.15;3.30;;;;;;;15.30;56.39;96548.22;5076399;28;20482;-49
2024/03/26 02:01:51;;;;;;;12.15;4.93;;;;;;;15.09;58.17;96546.88;5093407;28;20028;-49
2024/03/26 02:04:16;;;;;;;13.80;3.60;;;;;;;14.84;58.37;96538.16;5094304;28;20028;-49
2024/03/26 02:06:42;;;;;;;11.43;6.75;;;;;;;14.76;58.81;96530.84;5092902;28;20035;-49
2024/03/26 02:09:11;;;;;;;361.10;38.78;;;;;;;14.80;60.27;96537.16;5094199;28;20486;-48
2024/03/26 02:11:40;;;;;;;14.25;4.18;;;;;;;14.89;59.19;96532.03;5092728;28;20020;-49
2024/03/26 02:14:05;;;;;;;13.93;4.90;;;;;;;14.84;58.45;96524.97;5093969;28;20020;-49
2024/03/26 02:16:31;;;;;;;24.48;12.98;;;;;;;14.81;59.31;96522.09;5093994;28;20040;-48
2024/03/26 02:18:57;;;;;;;34.67;29.90;;;;;;;15.10;59.45;96529.97;5092582;28;20032;-48
2024/03/26 02:21:22;;;;;;;16.05;10.35;;;;;;;15.33;58.89;96533.63;5093936;28;20024;-49
2024/03/26 02:23:48;;;;;;;15.00;9.98;;;;;;;15.70;58.01;96519.66;5093813;28;20031;-49
2024/03/26 02:26:18;;;;;;;14.02;4.30;;;;;;;15.90;55.86;96515.19;5092529;28;20494;-49
2024/03/26 02:28:44;;;;;;;11.25;3.00;;;;;;;15.95;54.93;96502.63;5093746;28;20063;-49
2024/03/26 02:31:10;;;;;;;10.85;3.35;;;;;;;15.69;54.66;96491.63;5093806;28;20540;-49
2024/03/26 02:33:35;;;;;;;14.98;3.60;;;;;;;15.38;55.53;96493.94;5093497;28;20398;-49
2024/03/26 02:36:01;;;;;;;11.32;4.18;;;;;;;15.37;56.54;96489.72;5093629;28;20398;-49
2024/03/26 02:38:27;;;;;;;13.35;5.15;;;;;;;15.28;56.63;96478.22;5092335;28;20040;-49
2024/03/26 02:40:52;;;;;;;15.10;5.05;;;;;;;15.27;56.89;96474.78;5092265;28;20032;-49
2024/03/26 02:43:19;;;;;;;11.35;4.80;;;;;;;15.34;56.76;96458.56;5093545;28;20020;-49
2024/03/26 02:45:45;;;;;;;9.38;3.05;;;;;;;15.43;56.44;96462.13;5093447;28;20409;-49
2024/03/26 02:48:10;;;;;;;16.67;10.13;;;;;;;15.45;56.35;96462.63;5093408;28;20028;-49
2024/03/26 02:50:36;;;;;;;10.05;4.20;;;;;;;15.70;57.57;96450.13;5093348;28;20020;-49
2024/03/26 02:53:02;;;;;;;9.48;4.13;;;;;;;15.94;56.55;96464.03;5093213;28;20028;-49
2024/03/26 02:55:27;;;;;;;9.85;3.22;;;;;;;16.13;55.12;96466.63;5093288;28;20043;-49
2024/03/26 02:57:54;;;;;;;46.28;29.75;;;;;;;16.27;54.12;96457.94;5093293;28;20020;-48
2024/03/26 03:00:20;;;;;;;19.00;7.43;;;;;;;16.36;54.03;96459.63;5093206;28;20031;-49
2024/03/26 03:02:46;;;;;;;19.00;10.10;;;;;;;16.34;53.67;96456.50;5093157;28;20032;-49
2024/03/26 03:05:11;;;;;;;12.15;4.18;;;;;;;16.29;53.22;96463.72;5091762;28;20035;-49
2024/03/26 03:07:37;;;;;;;17.67;6.78;;;;;;;16.32;53.21;96456.00;5092058;28;20439;-49
2024/03/26 03:10:03;;;;;;;11.82;3.40;;;;;;;16.14;52.49;96456.84;5091646;28;20043;-49
2024/03/26 03:12:29;;;;;;;9.10;4.85;;;;;;;15.76;53.22;96441.84;5093022;28;20028;-49
2024/03/26 03:14:54;;;;;;;18.50;15.70;;;;;;;15.51;54.27;96452.78;5092886;28;20051;-49
2024/03/26 03:17:20;;;;;;;13.45;5.78;;;;;;;15.30;54.49;96447.78;5092871;28;20024;-49
2024/03/26 03:19:45;;;;;;;11.82;3.60;;;;;;;15.06;54.35;96439.91;5092795;28;20028;-49
2024/03/26 03:22:11;;;;;;;11.00;3.15;;;;;;;14.86;55.27;96438.31;5091710;28;20031;-49
2024/03/26 03:24:37;;;;;;;15.63;5.65;;;;;;;14.72;55.39;96438.22;5091726;28;20125;-49
2024/03/26 03:27:03;;;;;;;10.57;3.25;;;;;;;14.70;55.52;96429.00;5091371;28;20569;-49
2024/03/26 03:29:29;;;;;;;14.77;7.25;;;;;;;14.57;55.38;96423.34;5092938;28;20051;-49
2024/03/26 03:31:55;;;;;;;12.25;3.65;;;;;;;14.44;57.04;96412.66;5074742;28;20028;-49
2024/03/26 03:34:20;;;;;;;11.75;5.28;;;;;;;14.43;58.13;96419.78;5092272;28;20116;-49
2024/03/26 03:36:46;;;;;;;14.45;6.43;;;;;;;14.44;57.26;96423.19;5091777;28;20511;-49
2024/03/26 03:39:12;;;;;;;13.93;5.10;;;;;;;14.39;57.07;96435.38;5092522;28;20032;-49
2024/03/26 03:41:38;;;;;;;7.95;3.53;;;;;;;14.34;57.57;96440.69;5092439;28;20047;-48
2024/03/26 03:44:04;;;;;;;16.55;7.05;;;;;;;14.27;58.23;96440.25;5091316;28;20055;-48
2024/03/26 03:46:30;;;;;;;15.40;4.10;;;;;;;14.37;57.88;96432.25;5092401;28;20032;-49
2024/03/26 03:48:56;;;;;;;7.28;2.80;;;;;;;14.35;56.98;96431.75;5092626;28;20016;-49
2024/03/26 03:51:22;;;;;;;13.05;4.25;;;;;;;14.32;57.80;96426.22;5091224;28;20537;-49
2024/03/26 03:53:48;;;;;;;9.68;2.83;;;;;;;14.49;57.70;96420.53;5090924;28;20119;-48
2024/03/26 03:56:13;;;;;;;12.05;3.40;;;;;;;14.48;57.14;96422.34;5092172;28;20035;-49
2024/03/26 03:58:39;;;;;;;15.75;4.40;;;;;;;14.53;58.14;96424.94;5092168;28;20383;-49
2024/03/26 04:01:05;;;;;;;6.65;2.80;;;;;;;14.51;56.59;96410.47;5091087;28;20036;-49
2024/03/26 04:03:30;;;;;;;10.70;3.85;;;;;;;14.43;56.68;96401.31;5091024;28;20379;-49
2024/03/26 04:05:56;;;;;;;9.38;2.65;;;;;;;14.40;57.51;96393.94;5074178;28;20030;-49
2024/03/26 04:08:22;;;;;;;10.70;3.03;;;;;;;14.44;56.94;96400.22;5092059;28;20107;-49
2024/03/26 04:10:48;;;;;;;10.57;3.63;;;;;;;14.24;57.52;96393.31;5090970;28;20107;-49
2024/03/26 04:13:14;;;;;;;16.88;3.63;;;;;;;14.22;57.66;96386.75;5090551;28;20193;-49
2024/03/26 04:15:40;;;;;;;14.10;3.47;;;;;;;14.28;58.42;96388.28;5090640;28;20114;-48
2024/03/26 04:18:06;;;;;;;11.45;3.22;;;;;;;14.29;57.42;96381.94;5091905;28;20034;-49
2024/03/26 04:20:32;;;;;;;10.95;3.13;;;;;;;14.26;58.16;96372.72;5092135;28;20024;-48
2024/03/26 04:22:58;;;;;;;13.15;3.00;;;;;;;14.27;59.35;96360.34;5091957;28;20024;-48
2024/03/26 04:25:24;;;;;;;9.10;3.10;;;;;;;14.29;58.51;96368.75;5090531;28;20032;-49
2024/03/26 04:27:50;;;;;;;14.02;5.32;;;;;;;14.22;58.34;96363.78;5091879;28;20028;-49
2024/03/26 04:30:15;;;;;;;12.40;4.45;;;;;;;14.16;58.28;96362.28;5091783;28;20115;-49
2024/03/26 04:32:41;;;;;;;9.00;2.95;;;;;;;14.10;59.29;96369.47;5091419;28;20043;-49
2024/03/26 04:35:08;;;;;;;15.77;3.55;;;;;;;13.92;60.24;96363.06;5090602;28;20028;-48
2024/03/26 04:37:33;;;;;;;10.68;2.42;;;;;;;13.76;60.54;96353.72;5091699;28;20032;-48
2024/03/26 04:39:59;;;;;;;12.23;5.07;;;;;;;13.65;60.78;96355.66;5090359;28;20036;-49
2024/03/26 04:42:25;;;;;;;13.68;4.07;;;;;;;13.58;61.35;96363.91;5091709;28;20072;-49
2024/03/26 04:44:52;;;;;;;11.48;3.80;;;;;;;13.72;61.17;96355.34;5091645;28;20046;-48
2024/03/26 04:47:17;;;;;;;10.60;3.53;;;;;;;13.86;61.76;96364.16;5093447;28;20452;-49
2024/03/26 04:49:43;;;;;;;10.57;3.10;;;;;;;14.18;60.88;96360.97;5095776;28;20072;-48
2024/03/26 04:52:09;;;;;;;13.32;3.45;;;;;;;14.24;60.35;96360.88;5077712;28;20077;-49
2024/03/26 04:54:35;;;;;;;15.93;3.78;;;;;;;14.25;60.97;96362.47;5095586;28;20019;-49
2024/03/26 04:57:01;;;;;;;12.85;3.83;;;;;;;14.22;60.90;96363.03;5095634;28;20032;-49
2024/03/26 04:59:26;;;;;;;10.30;3.92;;;;;;;14.11;61.21;96355.22;5095563;28;20035;-48
2024/03/26 05:01:52;;;;;;;12.75;3.67;;;;;;;13.90;61.35;96345.94;5094429;28;20020;-49
2024/03/26 05:04:18;;;;;;;15.73;3.45;;;;;;;13.61;62.56;96349.38;5095457;28;20028;-49
2024/03/26 05:06:44;;;;;;;12.77;4.60;;;;;;;13.31;64.95;96363.59;5095730;28;20058;-48
2024/03/26 05:09:10;;;;;;;13.13;3.85;;;;;;;13.18;66.35;96371.03;5094321;28;20081;-48
2024/03/26 05:11:36;;;;;;;12.18;3.70;;;;;;;13.19;66.69;96380.47;5095287;28;20028;-48
2024/03/26 05:14:02;;;;;;;10.20;2.63;;;;;;;13.31;66.04;96376.75;5095204;28;20016;-49
2024/03/26 05:16:29;;;;;;;9.77;4.43;;;;;;;13.26;65.98;96380.19;5093985;28;20591;-49
2024/03/26 05:18:55;;;;;;;10.18;3.30;;;;;;;13.25;66.00;96373.34;5095156;28;20036;-49
2024/03/26 05:21:21;;;;;;;11.15;3.50;;;;;;;13.31;66.24;96372.25;5093936;28;20547;-49
2024/03/26 05:23:46;;;;;;;7.30;3.50;;;;;;;13.39;65.59;96365.63;5095099;28;20020;-49
2024/03/26 05:26:12;;;;;;;10.95;3.30;;;;;;;13.19;65.51;96364.69;5093986;28;20032;-49
2024/03/26 05:28:38;;;;;;;12.35;3.78;;;;;;;13.06;65.99;96364.50;5095074;28;20405;-49
2024/03/26 05:31:18;;;;;;;14.25;3.13;;;;;;;12.98;66.32;96365.88;5094948;28;20028;-48
2024/03/26 05:33:48;;;;;;;30.75;6.80;;;;;;;12.90;67.84;96377.00;5094593;28;20462;-49
2024/03/26 05:36:16;;;;;;;19.20;13.85;;;;;;;12.89;70.39;96378.81;5094837;28;20028;-48
2024/03/26 05:38:42;;;;;;;35.08;10.38;;;;;;;12.75;72.03;96365.47;5093606;28;20047;-49
2024/03/26 05:41:09;;;;;;;20.05;7.28;;;;;;;12.27;75.12;96364.34;5093727;28;20032;-48
2024/03/26 05:43:34;;;;;;;15.07;7.00;;;;;;;11.84;79.99;96364.69;5094758;28;20016;-48
2024/03/26 05:46:00;;;;;;;14.63;5.03;;;;;;;11.51;83.38;96360.78;5094680;28;20104;-48
2024/03/26 05:48:26;;;;;;;36.20;20.52;;;;;;;11.12;87.53;96367.31;5094633;28;20551;-48
2024/03/26 05:50:53;;;;;;;21.27;11.07;;;;;;;11.01;91.87;96378.88;5094568;28;20016;-47
2024/03/26 05:53:19;;;;;;;25.77;19.38;;;;;;;11.23;94.83;96367.34;5093177;28;20072;-47
2024/03/26 05:55:45;;;;;;;14.90;6.45;;;;;;;11.20;96.56;96353.69;5094462;28;20024;-48
2024/03/26 05:58:11;;;;;;;28.05;18.10;;;;;;;10.99;98.24;96329.25;5093728;28;20030;-47
2024/03/26 06:00:37;;;;;;;36.15;11.15;;;;;;;11.00;100.00;96330.81;5093020;28;20112;-47
2024/03/26 06:03:03;;;;;;;20.17;8.90;;;;;;;11.02;100.00;96350.78;5092990;28;20118;-46
2024/03/26 06:05:28;;;;;;;29.88;22.48;;;;;;;10.82;100.00;96344.44;5094329;28;20024;-46
2024/03/26 06:07:54;;;;;;;19.63;9.35;;;;;;;10.64;100.00;96344.94;5094529;28;20027;-47
2024/03/26 06:10:20;;;;;;;39.40;35.20;;;;;;;10.47;100.00;96343.31;5092917;28;20061;-47
2024/03/26 06:12:47;;;;;;;35.53;29.60;;;;;;;10.43;100.00;96344.09;5092811;28;20119;-47
2024/03/26 06:15:13;;;;;;;24.40;11.98;;;;;;;10.36;100.00;96345.13;5094161;28;20146;-47
2024/03/26 06:17:39;;;;;;;29.83;17.98;;;;;;;10.32;100.00;96341.44;5094053;28;20500;-47
2024/03/26 06:20:07;;;;;;;30.65;22.50;;;;;;;10.31;100.00;96342.47;5094046;28;20020;-47
2024/03/26 06:22:33;;;;;;;41.20;34.42;;;;;;;10.36;100.00;96337.25;5093970;28;20093;-48
2024/03/26 06:24:59;;;;;;;19.92;12.05;;;;;;;10.57;100.00;96337.31;5093947;28;20016;-47
2024/03/26 06:27:26;;;;;;;24.40;19.23;;;;;;;10.71;100.00;96327.13;5093918;28;20028;-48
2024/03/26 06:29:53;;;;;;;40.17;32.45;;;;;;;10.83;100.00;96316.38;5093789;28;20028;-48
2024/03/26 06:32:18;;;;;;;18.08;8.93;;;;;;;10.95;100.00;96327.44;5092482;28;20081;-48
2024/03/26 06:34:44;;;;;;;20.30;7.30;;;;;;;10.72;100.00;96326.84;5092212;28;20048;-48
2024/03/26 06:37:10;;;;;;;10.30;4.95;;;;;;;10.62;100.00;96320.78;5093719;28;20453;-48
2024/03/26 06:39:35;;;;;;;21.60;12.80;;;;;;;10.65;100.00;96333.41;5093741;28;20020;-48
2024/03/26 06:42:01;;;;;;;42.83;38.70;;;;;;;10.77;100.00;96333.94;5093663;28;20340;-48
2024/03/26 06:44:27;;;;;;;17.73;10.23;;;;;;;11.09;100.00;96330.34;5093672;28;20027;-46
2024/03/26 06:46:54;;;;;;;17.90;10.07;;;;;;;11.37;100.00;96324.56;5092234;28;20489;-47
2024/03/26 06:49:21;;;;;;;10.95;6.88;;;;;;;11.39;100.00;96322.44;5092217;28;20082;-47
2024/03/26 06:51:50;;;;;;;17.38;8.73;;;;;;;11.42;100.00;96318.50;5093477;28;20054;-47
2024/03/26 06:54:17;;;;;;;16.88;7.70;;;;;;;11.39;100.00;96316.41;5093572;28;20028;-46
2024/03/26 06:56:42;;;;;;;28.58;17.35;;;;;;;11.38;100.00;96318.22;5093278;28;20065;-46
2024/03/26 06:59:08;;;;;;;47.58;42.42;;;;;;;11.31;100.00;96317.72;5091959;28;20023;-46
2024/03/26 07:01:37;;;;;;;22.17;14.27;;;;;;;11.28;100.00;96313.00;5093505;28;20024;-46
2024/03/26 07:04:03;;;;;;;27.85;21.90;;;;;;;11.24;100.00;96316.41;5093203;28;20023;-46
2024/03/26 07:06:30;;;;;;;32.15;21.45;;;;;;;11.14;100.00;96312.72;5093140;28;20104;-46
2024/03/26 07:08:57;;;;;;;24.48;11.82;;;;;;;11.14;100.00;96302.22;5091807;28;20047;-48
2024/03/26 07:11:24;;;;;;;15.07;9.82;;;;;;;11.25;100.00;96296.97;5090734;28;20401;-48
2024/03/26 07:13:50;;;;;;;23.38;15.82;;;;;;;11.30;100.00;96300.38;5093002;28;20059;-48
2024/03/26 07:16:15;;;;;;;19.77;12.98;;;;;;;11.33;100.00;96299.09;5092859;28;20063;-47
2024/03/26 07:18:41;;;;;;;15.55;7.70;;;;;;;11.40;100.00;96292.50;5092948;28;20088;-46
2024/03/26 07:21:07;;;;;;;15.10;12.60;;;;;;;11.52;100.00;96289.59;5091527;28;20115;-46
2024/03/26 07:23:33;;;;;;;21.05;13.82;;;;;;;11.55;100.00;96286.47;5091493;28;20020;-47
2024/03/26 07:25:58;;;;;;;19.92;17.85;;;;;;;11.67;100.00;96282.72;5092726;28;20024;-47
2024/03/26 07:28:24;;;;;;;22.10;19.88;;;;;;;11.75;100.00;96271.69;5092761;28;20052;-47
2024/03/26 07:30:50;;;;;;;10.48;8.07;;;;;;;11.76;99.01;96279.31;5091303;28;20020;-47
2024/03/26 07:33:16;;;;;;;11.68;6.47;;;;;;;11.90;99.53;96270.91;5092442;28;20069;-46
2024/03/26 07:35:41;;;;;;;11.75;6.65;;;;;;;12.12;100.00;96273.97;5091262;28;20031;-47
2024/03/26 07:38:07;;;;;;;18.00;8.68;;;;;;;12.50;98.13;96271.69;5092512;28;20050;-47
2024/03/26 07:40:35;;;;;;;14.93;7.88;;;;;;;13.07;98.11;96260.75;5092444;28;20042;-47
2024/03/26 07:43:00;;;;;;;11.27;4.75;;;;;;;13.20;96.99;96257.50;5092368;28;20584;-46
2024/03/26 07:45:27;;;;;;;16.55;8.00;;;;;;;13.04;97.96;96266.56;5091150;28;20028;-47
2024/03/26 07:47:53;;;;;;;19.02;17.02;;;;;;;12.90;99.38;96267.22;5092668;28;20050;-46
2024/03/26 07:50:19;;;;;;;13.18;6.20;;;;;;;12.77;97.59;96267.81;5091039;28;20114;-46
2024/03/26 07:52:45;;;;;;;9.73;3.42;;;;;;;12.75;97.28;96265.44;5090991;28;20127;-46
2024/03/26 07:55:11;;;;;;;10.88;6.40;;;;;;;12.96;95.58;96260.84;5092118;28;20358;-46
2024/03/26 07:57:37;;;;;;;12.90;5.15;;;;;;;13.11;92.27;96253.88;5092489;28;20031;-46
2024/03/26 08:00:06;;;;;;;19.05;11.48;;;;;;;13.06;92.28;96246.00;5090851;28;20028;-46
2024/03/26 08:02:31;;;;;;;14.07;6.68;;;;;;;13.25;96.63;96240.84;5092398;28;20058;-46
2024/03/26 08:04:57;;;;;;;16.58;10.00;;;;;;;13.33;97.87;96251.59;5090865;28;20397;-46
2024/03/26 08:07:23;;;;;;;16.48;8.65;;;;;;;13.29;97.80;96242.69;5092052;28;20490;-46
2024/03/26 08:09:48;;;;;;;11.35;5.30;;;;;;;13.47;99.93;96237.78;5092062;28;20028;-48
2024/03/26 08:12:17;;;;;;;12.73;6.90;;;;;;;13.56;99.70;96239.53;5092057;28;20024;-48
2024/03/26 08:14:43;;;;;;;46.60;42.03;;;;;;;13.87;100.00;96236.56;5091997;28;20028;-48
2024/03/26 08:17:08;;;;;;;20.27;9.73;;;;;;;14.44;100.00;96227.91;5090658;28;20027;-48
2024/03/26 08:19:34;;;;;;;10.82;5.75;;;;;;;14.80;100.00;96224.78;5091966;28;20420;-48
2024/03/26 08:22:00;;;;;;;13.85;5.65;;;;;;;14.97;99.08;96231.13;5091584;28;20130;-48
2024/03/26 08:24:25;;;;;;;19.30;11.95;;;;;;;15.28;100.00;96227.94;5091914;28;20382;-49
2024/03/26 08:26:51;;;;;;;13.73;4.47;;;;;;;15.44;98.57;96219.75;5091852;28;20028;-49
2024/03/26 08:29:17;;;;;;;15.00;6.97;;;;;;;15.53;97.55;96220.63;5091904;28;20093;-48
2024/03/26 08:31:42;;;;;;;13.07;4.68;;;;;;;15.63;97.03;96214.38;5091821;28;20532;-48
2024/03/26 08:34:09;;;;;;;11.27;4.70;;;;;;;15.68;97.43;96209.78;5095279;28;20502;-49
2024/03/26 08:36:35;;;;;;;11.75;3.90;;;;;;;15.83;97.14;96213.25;5091792;28;20093;-48
2024/03/26 08:39:01;;;;;;;17.65;4.85;;;;;;;15.93;99.25;96213.03;5091702;28;20031;-48
2024/03/26 08:41:26;;;;;;;12.75;4.38;;;;;;;16.14;100.00;96202.81;5091741;28;20504;-48
2024/03/26 08:43:54;;;;;;;12.32;4.00;;;;;;;16.33;100.00;96200.03;5091745;28;20024;-48
2024/03/26 08:46:20;;;;;;;16.38;4.65;;;;;;;16.30;99.02;96203.28;5091653;28;20103;-49
2024/03/26 08:48:46;;;;;;;11.32;3.40;;;;;;;16.22;98.75;96206.59;5091717;28;20039;-49
2024/03/26 08:51:13;;;;;;;12.68;4.00;;;;;;;16.15;98.07;96210.44;5091570;28;20051;-49
2024/03/26 08:53:38;;;;;;;10.90;3.92;;;;;;;16.18;97.39;96203.78;5090572;28;20024;-49
2024/03/26 08:56:04;;;;;;;13.75;4.18;;;;;;;16.48;98.35;96206.84;5091563;28;20378;-49
2024/03/26 08:58:30;;;;;;;8.68;3.58;;;;;;;17.29;95.19;96198.06;5090294;28;20028;-49
2024/03/26 09:00:56;;;;;;;12.05;3.72;;;;;;;18.20;92.55;96193.97;5090241;28;20032;-49
2024/03/26 09:03:22;;;;;;;10.23;4.72;;;;;;;18.78;87.40;96186.63;5091547;28;20482;-46
2024/03/26 09:05:48;;;;;;;8.52;3.00;;;;;;;19.15;84.88;96190.47;5090200;28;20093;-46
2024/03/26 09:08:13;;;;;;;10.43;3.33;;;;;;;19.51;80.07;96193.81;5091491;28;20024;-46
2024/03/26 09:10:39;;;;;;;14.98;3.92;;;;;;;19.81;74.52;96199.19;5090455;28;20032;-46
2024/03/26 09:13:05;;;;;;;9.30;3.17;;;;;;;20.25;74.75;96192.50;5091639;28;20379;-46
2024/03/26 09:15:31;;;;;;;9.13;2.85;;;;;;;21.14;73.39;96184.22;5090364;28;20085;-46
2024/03/26 09:17:58;;;;;;;5.47;3.00;;;;;;;22.30;64.73;96168.00;5090140;28;20023;-46
2024/03/26 09:20:24;;;;;;;6.10;3.03;;;;;;;23.17;63.19;96165.75;5091383;28;20039;-46
2024/03/26 09:22:50;;;;;;;10.43;3.40;;;;;;;24.19;60.14;96159.72;5091353;28;20593;-46
2024/03/26 09:25:15;;;;;;;7.43;3.25;;;;;;;25.22;57.30;96148.66;5090276;28;20127;-47
2024/03/26 09:27:41;;;;;;;9.82;3.10;;;;;;;25.67;55.23;96141.69;5091338;28;20039;-47
2024/03/26 09:30:08;;;;;;;13.38;3.92;;;;;;;25.76;53.21;96144.13;5091201;28;20081;-47
2024/03/26 09:32:33;;;;;;;15.25;3.83;;;;;;;25.50;49.79;96141.06;5091276;28;20028;-46
2024/03/26 09:34:59;;;;;;;14.88;4.03;;;;;;;24.73;48.09;96139.34;5092339;28;20091;-46
2024/03/26 09:37:25;;;;;;;12.90;3.13;;;;;;;24.15;50.48;96152.69;5094837;28;20039;-46
2024/03/26 09:39:50;;;;;;;11.45;3.30;;;;;;;24.17;51.34;96145.13;5094862;28;20032;-46
2024/03/26 09:42:19;;;;;;;7.35;3.35;;;;;;;24.07;51.05;96136.50;5094756;28;20074;-46
2024/03/26 09:44:46;;;;;;;15.00;3.58;;;;;;;23.64;52.46;96135.53;5093474;28;20031;-46
2024/03/26 09:47:12;;;;;;;20.17;4.07;;;;;;;23.11;53.03;96143.81;5094691;28;20115;-46
2024/03/26 09:49:40;;;;;;;13.48;4.60;;;;;;;22.38;54.96;96142.28;5094670;28;20024;-46
2024/03/26 09:52:09;;;;;;;8.68;3.38;;;;;;;22.01;50.79;96146.91;5094531;28;20031;-46
2024/03/26 09:54:38;;;;;;;12.60;3.55;;;;;;;21.43;54.31;96141.69;5093132;28;20067;-46
2024/03/26 09:57:04;;;;;;;16.33;4.50;;;;;;;20.97;54.97;96146.28;5093388;28;20032;-46
2024/03/26 09:59:30;;;;;;;12.70;4.18;;;;;;;20.74;57.93;96136.81;5094462;28;20032;-46
2024/03/26 10:02:06;;;;;;;8.48;4.20;;;;;;;20.10;55.87;96137.94;5093061;28;20510;-46
2024/03/26 10:04:35;;;;;;;9.95;4.30;;;;;;;19.82;57.00;96131.53;5094670;28;20024;-46
2024/03/26 10:07:03;;;;;;;18.42;5.63;;;;;;;19.95;60.35;96128.63;5094298;28;20153;-45
2024/03/26 10:09:28;;;;;;;18.35;5.10;;;;;;;19.86;60.72;96124.47;5094262;28;20549;-46
2024/03/26 10:11:54;;;;;;;12.57;5.22;;;;;;;19.82;61.09;96120.91;5092872;28;20173;-46
2024/03/26 10:14:20;;;;;;;17.08;5.18;;;;;;;19.83;59.89;96117.91;5094128;28;20089;-46
2024/03/26 10:16:46;;;;;;;15.52;4.45;;;;;;;19.81;61.44;96120.13;5094097;28;20032;-46
2024/03/26 10:19:12;;;;;;;14.48;5.72;;;;;;;19.91;62.52;96116.31;5092768;28;20028;-46
2024/03/26 10:21:45;;;;;;;19.05;4.93;;;;;;;20.18;61.14;96108.91;5094043;28;20452;-46
2024/03/26 10:24:11;;;;;;;28.58;4.70;;;;;;;20.13;61.50;96113.31;5094010;28;20186;-46
2024/03/26 10:26:37;;;;;;;17.63;5.07;;;;;;;20.03;61.46;96094.31;5093975;28;20394;-46
2024/03/26 10:29:03;;;;;;;13.38;4.20;;;;;;;20.23;62.60;96103.38;5092618;28;20066;-46
2024/03/26 10:31:29;;;;;;;30.88;9.30;;;;;;;20.02;63.60;96103.38;5093856;28;20024;-46
2024/03/26 10:33:56;;;;;;;15.63;4.45;;;;;;;19.83;63.12;96088.66;5075278;28;20052;-46
2024/03/26 10:36:22;;;;;;;18.35;6.50;;;;;;;20.23;63.05;96088.19;5093763;28;20032;-46
2024/03/26 10:38:53;;;;;;;27.92;10.60;;;;;;;20.93;60.49;96080.31;5093602;28;20062;-46
2024/03/26 10:41:26;;;;;;;43.85;30.70;;;;;;;21.52;59.54;96075.66;5092349;28;20481;-46
2024/03/26 10:43:52;;;;;;;19.73;5.22;;;;;;;21.85;55.24;96078.19;5093612;28;20476;-46
2024/03/26 10:46:20;;;;;;;14.27;6.82;;;;;;;21.44;56.36;96063.22;5092298;28;20028;-46
2024/03/26 10:48:46;;;;;;;16.20;6.18;;;;;;;21.11;55.69;96058.78;5093480;28;20119;-46
2024/03/26 10:51:13;;;;;;;13.82;5.35;;;;;;;21.19;53.26;96063.22;5093426;28;20493;-46
2024/03/26 10:53:39;;;;;;;13.90;6.28;;;;;;;21.22;52.77;96062.53;5093303;28;20028;-46
2024/03/26 10:56:06;;;;;;;15.95;4.50;;;;;;;21.27;50.75;96048.97;5093364;28;20076;-46
2024/03/26 10:58:36;;;;;;;11.35;3.70;;;;;;;21.16;50.53;96047.88;5092009;28;20028;-46
2024/03/26 11:01:04;;;;;;;17.08;4.07;;;;;;;21.04;50.26;96045.19;5093161;28;20038;-46
2024/03/26 11:03:32;;;;;;;13.88;4.38;;;;;;;21.09;50.02;96039.66;5093181;28;20028;-46
2024/03/26 11:06:01;;;;;;;15.57;4.35;;;;;;;21.14;49.78;96040.19;5093132;28;20540;-46
2024/03/26 11:08:27;;;;;;;14.95;4.70;;;;;;;21.13;50.73;96037.88;5091824;28;20111;-46
2024/03/26 11:10:57;;;;;;;13.20;5.70;;;;;;;21.05;50.61;96041.44;5093069;28;20024;-46
2024/03/26 11:13:28;;;;;;;13.60;4.57;;;;;;;21.32;49.40;96034.63;5091625;28;20414;-46
2024/03/26 11:15:54;;;;;;;13.65;4.18;;;;;;;21.40;49.03;96030.28;5092866;28;20028;-46
2024/03/26 11:18:31;;;;;;;15.18;4.43;;;;;;;21.69;49.30;96026.59;5092933;28;20157;-46
2024/03/26 11:21:04;;;;;;;16.02;5.40;;;;;;;22.19;49.38;96008.50;5091866;28;20140;-46